createdAt,value
2023-02-25T00:01:33.651Z,4.8
2023-02-25T00:04:35.578Z,5.5
2023-02-25T00:07:37.582Z,4.5
2023-02-25T00:10:39.541Z,5.8
2023-02-25T00:13:41.468Z,7.7
2023-02-25T00:16:43.462Z,6.1
2023-02-25T00:19:45.376Z,7.7
2023-02-25T00:22:47.334Z,8
2023-02-25T00:25:49.291Z,10
2023-02-25T00:28:51.241Z,5.9
2023-02-25T00:31:53.348Z,5.4
2023-02-25T00:34:55.173Z,8.8
2023-02-25T00:38:04.059Z,7.3
2023-02-25T00:40:59.122Z,9.7
2023-02-25T00:44:01.074Z,11.8
2023-02-25T00:47:03.032Z,10
2023-02-25T00:50:05.041Z,12.7
2023-02-25T00:53:06.965Z,7.5
2023-02-25T00:56:08.973Z,10.2
2023-02-25T00:59:10.896Z,7.6
2023-02-25T01:02:12.861Z,7.9
2023-02-25T01:05:14.798Z,7.4
2023-02-25T01:08:16.750Z,8.9
2023-02-25T01:11:18.710Z,13.3
2023-02-25T01:14:20.706Z,9.4
2023-02-25T01:17:22.632Z,7.5
2023-02-25T01:20:24.696Z,12.2
2023-02-25T01:23:26.574Z,11
2023-02-25T01:26:28.553Z,7.9
2023-02-25T01:29:30.531Z,10.9
2023-02-25T01:32:32.566Z,12.8
2023-02-25T01:35:34.400Z,12.5
2023-02-25T01:38:36.369Z,11.4
2023-02-25T01:41:38.364Z,8.5
2023-02-25T01:44:40.299Z,10.1
2023-02-25T01:47:42.252Z,11.1
2023-02-25T01:50:44.211Z,10.4
2023-02-25T01:53:46.167Z,9.3
2023-02-25T01:56:48.134Z,11.2
2023-02-25T01:59:50.097Z,7.6
2023-02-25T02:02:52.077Z,14.4
2023-02-25T02:05:54.012Z,10.6
2023-02-25T02:08:55.955Z,12.2
2023-02-25T02:11:57.935Z,11.6
2023-02-25T02:14:59.887Z,9.7
2023-02-25T02:18:01.862Z,10.1
2023-02-25T02:21:03.799Z,7.3
2023-02-25T02:24:05.806Z,13.1
2023-02-25T02:27:07.730Z,9.7
2023-02-25T02:30:09.716Z,8.1
2023-02-25T02:33:11.673Z,9.4
2023-02-25T02:36:13.606Z,5.7
2023-02-25T02:39:15.585Z,7
2023-02-25T02:42:17.531Z,11.8
2023-02-25T02:45:19.539Z,12.3
2023-02-25T02:48:21.448Z,12.9
2023-02-25T02:51:23.404Z,8.5
2023-02-25T02:54:25.363Z,9.7
2023-02-25T02:57:27.323Z,10.8
2023-02-25T03:00:29.333Z,11.2
2023-02-25T03:03:31.281Z,10.6
2023-02-25T03:06:33.228Z,12.5
2023-02-25T03:09:35.184Z,12.1
2023-02-25T03:12:37.186Z,15
2023-02-25T03:15:39.258Z,13.2
2023-02-25T03:18:41.172Z,10.8
2023-02-25T03:21:43.119Z,13.3
2023-02-25T03:24:45.075Z,14.2
2023-02-25T03:27:47.177Z,9
2023-02-25T03:30:49.226Z,11.5
2023-02-25T03:33:51.076Z,8
2023-02-25T03:36:53.083Z,10.7
2023-02-25T03:39:55.018Z,10.2
2023-02-25T03:42:56.966Z,9.6
2023-02-25T03:45:58.976Z,8.5
2023-02-25T03:49:00.897Z,12.2
2023-02-25T03:52:02.833Z,7.7
2023-02-25T03:55:04.810Z,11.6
2023-02-25T03:58:06.758Z,10.5
2023-02-25T04:01:08.729Z,13.4
2023-02-25T04:04:10.715Z,7.8
2023-02-25T04:07:12.692Z,11.6
2023-02-25T04:10:14.638Z,14.2
2023-02-25T04:13:16.610Z,11.9
2023-02-25T04:16:18.521Z,10.1
2023-02-25T04:19:20.533Z,14.5
2023-02-25T04:22:22.455Z,11.1
2023-02-25T04:25:24.455Z,12
2023-02-25T04:28:26.415Z,10.4
2023-02-25T04:31:28.518Z,10.1
2023-02-25T04:34:30.331Z,10.5
2023-02-25T04:37:32.372Z,12.2
2023-02-25T04:40:34.241Z,15.9
2023-02-25T04:43:36.256Z,7.7
2023-02-25T04:46:38.248Z,11
2023-02-25T04:49:40.170Z,7.2
2023-02-25T04:52:42.140Z,7.6
2023-02-25T04:55:44.090Z,12.4
2023-02-25T04:58:46.024Z,13.5
2023-02-25T05:01:47.985Z,17.8
2023-02-25T05:04:50.095Z,9.6
2023-02-25T05:07:51.900Z,11.3
2023-02-25T05:10:53.872Z,8.1
2023-02-25T05:13:55.835Z,14.4
2023-02-25T05:16:57.811Z,12.4
2023-02-25T05:19:59.811Z,9.9
2023-02-25T05:23:01.693Z,11.2
2023-02-25T05:26:03.660Z,10.7
2023-02-25T05:29:05.616Z,9.7
2023-02-25T05:32:07.722Z,12
2023-02-25T05:35:09.618Z,10.1
2023-02-25T05:38:11.516Z,9.6
2023-02-25T05:41:13.537Z,11.3
2023-02-25T05:44:15.450Z,9.3
2023-02-25T05:47:17.398Z,8.6
2023-02-25T05:50:19.369Z,8.8
2023-02-25T05:53:21.309Z,12.8
2023-02-25T05:56:23.618Z,7
2023-02-25T05:59:25.242Z,9.1
2023-02-25T06:02:27.234Z,6.9
2023-02-25T06:05:29.138Z,9.3
2023-02-25T06:08:31.105Z,7.4
2023-02-25T06:11:33.085Z,8
2023-02-25T06:14:35.036Z,7.5
2023-02-25T06:17:36.989Z,5.8
2023-02-25T06:20:38.934Z,10
2023-02-25T06:23:40.889Z,7.7
2023-02-25T06:26:45.127Z,8.3
2023-02-25T06:29:44.843Z,9.9
2023-02-25T06:32:46.828Z,10.9
2023-02-25T06:35:48.721Z,9.2
2023-02-25T06:38:50.695Z,6.7
2023-02-25T06:41:52.668Z,8.4
2023-02-25T06:44:54.646Z,11.1
2023-02-25T06:47:56.578Z,9.8
2023-02-25T06:50:58.545Z,11.5
2023-02-25T06:54:00.510Z,12.7
2023-02-25T06:57:02.544Z,12.2
2023-02-25T07:00:04.520Z,8.8
2023-02-25T07:03:06.462Z,9.7
2023-02-25T07:06:08.481Z,12
2023-02-25T07:09:10.430Z,10.8
2023-02-25T07:12:12.452Z,12.2
2023-02-25T07:15:14.397Z,17.8
2023-02-25T07:18:16.340Z,15.3
2023-02-25T07:21:18.324Z,11.4
2023-02-25T07:24:20.248Z,8.5
2023-02-25T07:27:22.216Z,9.8
2023-02-25T07:30:24.198Z,12.8
2023-02-25T07:33:26.133Z,9.6
2023-02-25T07:36:28.090Z,10
2023-02-25T07:39:30.044Z,9.5
2023-02-25T07:42:31.998Z,8.8
2023-02-25T07:45:33.979Z,13.4
2023-02-25T07:48:35.927Z,9.2
2023-02-25T07:51:37.881Z,11
2023-02-25T07:54:39.868Z,9.7
2023-02-25T07:57:41.836Z,11.9
2023-02-25T08:00:43.784Z,12
2023-02-25T08:03:45.770Z,13.2
2023-02-25T08:06:47.714Z,12.5
2023-02-25T08:09:49.670Z,15.3
2023-02-25T08:12:51.633Z,11.8
2023-02-25T08:15:53.615Z,13.5
2023-02-25T08:18:55.745Z,9.9
2023-02-25T08:21:57.521Z,10.1
2023-02-25T08:24:59.502Z,11.4
2023-02-25T08:28:01.445Z,9.4
2023-02-25T08:31:03.503Z,12.2
2023-02-25T08:34:05.384Z,9.1
2023-02-25T08:37:07.318Z,15.5
2023-02-25T08:40:09.312Z,12.5
2023-02-25T08:43:11.292Z,11.4
2023-02-25T08:46:13.253Z,12.2
2023-02-25T08:49:15.161Z,9.4
2023-02-25T08:52:17.161Z,9.2
2023-02-25T08:55:19.093Z,14.1
2023-02-25T08:58:21.069Z,13.8
2023-02-25T09:01:23.560Z,14.5
2023-02-25T09:04:24.997Z,13.3
2023-02-25T09:07:26.927Z,15.2
2023-02-25T09:10:32.370Z,10.6
2023-02-25T09:13:30.855Z,14
2023-02-25T09:16:32.852Z,12.6
2023-02-25T09:19:34.798Z,11.4
2023-02-25T09:22:36.759Z,12.7
2023-02-25T09:25:38.719Z,10.3
2023-02-25T09:28:40.798Z,10.7
2023-02-25T09:31:42.859Z,9.6
2023-02-25T09:34:44.689Z,9.2
2023-02-25T09:37:46.583Z,10.1
2023-02-25T09:40:48.539Z,9.2
2023-02-25T09:43:50.591Z,8.3
2023-02-25T09:46:52.492Z,12.3
2023-02-25T09:49:54.465Z,7.4
2023-02-25T09:52:56.425Z,10.8
2023-02-25T09:55:58.577Z,7.9
2023-02-25T09:59:00.341Z,6.9
2023-02-25T10:02:02.341Z,9.1
2023-02-25T10:05:04.279Z,19.5
2023-02-25T10:08:06.245Z,11.5
2023-02-25T10:11:08.200Z,13.2
2023-02-25T10:14:10.129Z,7.8
2023-02-25T10:17:12.106Z,10.1
2023-02-25T10:20:14.070Z,12.1
2023-02-25T10:23:16.067Z,7.1
2023-02-25T10:26:18.046Z,9
2023-02-25T10:29:19.959Z,11.1
2023-02-25T10:32:22.128Z,8.8
2023-02-25T10:35:23.897Z,9.8
2023-02-25T10:38:25.842Z,6.1
2023-02-25T10:41:27.821Z,10.1
2023-02-25T10:44:29.764Z,6.9
2023-02-25T10:47:31.717Z,10.7
2023-02-25T10:50:44.735Z,7.8
2023-02-25T10:53:35.666Z,6
2023-02-25T10:56:37.621Z,9.8
2023-02-25T10:59:39.602Z,8.5
2023-02-25T11:02:41.653Z,6.5
2023-02-25T11:05:43.573Z,7.3
2023-02-25T11:08:45.511Z,7.4
2023-02-25T11:11:47.461Z,8
2023-02-25T11:14:49.437Z,10.1
2023-02-25T11:17:51.388Z,9.9
2023-02-25T11:20:53.357Z,7.2
2023-02-25T11:23:55.317Z,10.6
2023-02-25T11:26:57.285Z,9.7
2023-02-25T11:29:59.252Z,9.4
2023-02-25T11:33:01.219Z,10.9
2023-02-25T11:36:03.178Z,9.8
2023-02-25T11:39:05.150Z,8.3
2023-02-25T11:42:07.105Z,5.4
2023-02-25T11:45:09.086Z,5.8
2023-02-25T11:48:11.022Z,2.4
2023-02-25T11:51:12.994Z,1.6
2023-02-25T11:54:14.977Z,2.5
2023-02-25T11:57:16.951Z,2
2023-02-25T12:00:18.869Z,1.7
2023-02-25T12:03:20.870Z,2.8
2023-02-25T12:06:22.985Z,2.1
2023-02-25T12:09:24.789Z,2.4
2023-02-25T12:12:26.719Z,3.1
2023-02-25T12:15:28.686Z,3.4
2023-02-25T12:18:30.639Z,3.6
2023-02-25T12:21:32.848Z,2.9
2023-02-25T12:24:34.545Z,3.2
2023-02-25T12:27:36.536Z,3.1
2023-02-25T12:30:38.541Z,3.9
2023-02-25T12:33:40.439Z,4.4
2023-02-25T12:36:42.438Z,2.8
2023-02-25T12:39:44.421Z,2.8
2023-02-25T12:42:46.360Z,2.9
2023-02-25T12:45:48.444Z,3.9
2023-02-25T12:48:50.285Z,2.5
2023-02-25T12:51:52.269Z,2.4
2023-02-25T12:54:54.208Z,2.2
2023-02-25T12:57:56.188Z,2.7
2023-02-25T13:00:58.194Z,3.1
2023-02-25T13:04:00.181Z,1.9
2023-02-25T13:07:02.069Z,2.6
2023-02-25T13:10:04.066Z,1.8
2023-02-25T13:13:06.040Z,2.1
2023-02-25T13:16:08.032Z,1.6
2023-02-25T13:19:09.945Z,1.5
2023-02-25T13:22:11.917Z,1.7
2023-02-25T13:25:13.893Z,2.5
2023-02-25T13:28:15.876Z,1.6
2023-02-25T13:31:17.807Z,3.3
2023-02-25T13:34:19.827Z,4.7
2023-02-25T13:37:21.749Z,4.1
2023-02-25T13:40:26.045Z,3.4
2023-02-25T13:43:25.758Z,2.2
2023-02-25T13:46:27.650Z,3.2
2023-02-25T13:49:29.611Z,2.8
2023-02-25T13:52:31.605Z,1.2
2023-02-25T13:55:33.644Z,3.4
2023-02-25T13:58:35.592Z,3.4
2023-02-25T14:01:37.501Z,4.1
2023-02-25T14:04:39.423Z,2.9
2023-02-25T14:07:41.400Z,3.3
2023-02-25T14:10:43.345Z,3.6
2023-02-25T14:13:45.331Z,5.3
2023-02-25T14:16:47.330Z,4.9
2023-02-25T14:19:49.293Z,5.4
2023-02-25T14:22:51.251Z,4.2
2023-02-25T14:25:53.212Z,4
2023-02-25T14:28:55.131Z,3.8
2023-02-25T14:31:57.183Z,1.7
2023-02-25T14:34:59.057Z,4
2023-02-25T14:38:01.032Z,5
2023-02-25T14:41:02.988Z,3.6
2023-02-25T14:44:04.907Z,3.7
2023-02-25T14:47:06.969Z,6.6
2023-02-25T14:50:08.899Z,3.8
2023-02-25T14:53:10.830Z,3.7
2023-02-25T14:56:12.777Z,3.2
2023-02-25T14:59:14.725Z,3.4
2023-02-25T15:02:16.727Z,2.8
2023-02-25T15:05:18.692Z,6.2
2023-02-25T15:08:20.644Z,4
2023-02-25T15:11:22.839Z,4.9
2023-02-25T15:14:24.523Z,3.1
2023-02-25T15:17:26.523Z,3.6
2023-02-25T15:20:28.450Z,2.6
2023-02-25T15:23:30.404Z,3.8
2023-02-25T15:26:32.372Z,4.1
2023-02-25T15:29:34.373Z,3.6
2023-02-25T15:32:36.286Z,3.4
2023-02-25T15:35:38.249Z,3.5
2023-02-25T15:38:40.209Z,4.8
2023-02-25T15:41:42.189Z,3.4
2023-02-25T15:44:44.146Z,2.9
2023-02-25T15:47:46.099Z,5.3
2023-02-25T15:50:48.088Z,3
2023-02-25T15:53:50.040Z,4.7
2023-02-25T15:56:52.038Z,5
2023-02-25T15:59:53.973Z,4
2023-02-25T16:02:56.518Z,6
2023-02-25T16:05:57.919Z,5.5
2023-02-25T16:08:59.907Z,5.3
2023-02-25T16:12:01.880Z,3.9
2023-02-25T16:15:03.772Z,6.8
2023-02-25T16:18:05.749Z,6.9
2023-02-25T16:21:07.699Z,5.3
2023-02-25T16:24:09.666Z,4.5
2023-02-25T16:27:11.652Z,3
2023-02-25T16:30:13.594Z,6.4
2023-02-25T16:33:15.563Z,2.8
2023-02-25T16:36:17.548Z,2.8
2023-02-25T16:39:19.522Z,5.8
2023-02-25T16:42:21.492Z,3.6
2023-02-25T16:45:23.564Z,6
2023-02-25T16:48:25.421Z,4.4
2023-02-25T16:51:27.329Z,4.3
2023-02-25T16:54:29.334Z,6.6
2023-02-25T16:57:31.299Z,5.5
2023-02-25T17:00:33.245Z,4.1
2023-02-25T17:03:35.255Z,3.8
2023-02-25T17:06:37.153Z,4.7
2023-02-25T17:09:39.086Z,3.7
2023-02-25T17:12:41.066Z,2.9
2023-02-25T17:15:43.075Z,3.7
2023-02-25T17:18:45.025Z,4.9
2023-02-25T17:21:46.983Z,5.7
2023-02-25T17:24:48.979Z,6.5
2023-02-25T17:27:50.896Z,3.4
2023-02-25T17:30:52.915Z,3.8
2023-02-25T17:33:54.829Z,4.5
2023-02-25T17:36:56.799Z,2.5
2023-02-25T17:39:58.794Z,3.1
2023-02-25T17:43:00.740Z,2.6
2023-02-25T17:46:02.706Z,2.6
2023-02-25T17:49:04.637Z,3.6
2023-02-25T17:52:06.579Z,2.7
2023-02-25T17:55:08.540Z,2.1
2023-02-25T17:58:10.564Z,2.7
2023-02-25T18:01:12.511Z,2.5
2023-02-25T18:04:14.442Z,2.5
2023-02-25T18:07:16.429Z,5.2
2023-02-25T18:10:18.345Z,2.5
2023-02-25T18:13:20.313Z,3.6
2023-02-25T18:16:22.671Z,4.5
2023-02-25T18:19:24.308Z,2.8
2023-02-25T18:22:26.258Z,2.6
2023-02-25T18:25:28.238Z,4.2
2023-02-25T18:28:30.150Z,3
2023-02-25T18:31:32.245Z,1.3
2023-02-25T18:34:34.068Z,3.5
2023-02-25T18:37:36.020Z,5.3
2023-02-25T18:40:38.039Z,4
2023-02-25T18:43:40.003Z,4.4
2023-02-25T18:46:42.018Z,3.9
2023-02-25T18:49:43.876Z,3.3
2023-02-25T18:52:45.847Z,4.5
2023-02-25T18:55:47.807Z,4.9
2023-02-25T18:58:49.803Z,2.7
2023-02-25T19:01:51.893Z,4.6
2023-02-25T19:04:53.684Z,3.6
2023-02-25T19:07:55.696Z,3.7
2023-02-25T19:10:57.631Z,3.4
2023-02-25T19:13:59.598Z,1.5
2023-02-25T19:17:01.590Z,4.6
2023-02-25T19:20:03.514Z,2.8
2023-02-25T19:23:05.468Z,3.3
2023-02-25T19:26:07.464Z,2.2
2023-02-25T19:29:09.403Z,2.5
2023-02-25T19:32:11.377Z,5.2
2023-02-25T19:35:13.316Z,3.2
2023-02-25T19:38:15.256Z,4.2
2023-02-25T19:41:17.248Z,3.3
2023-02-25T19:44:19.186Z,2.8
2023-02-25T19:47:21.198Z,3.5
2023-02-25T19:50:23.141Z,6
2023-02-25T19:53:25.202Z,6.3
2023-02-25T19:56:27.173Z,3.4
2023-02-25T19:59:29.078Z,3.3
2023-02-25T20:02:30.982Z,5
2023-02-25T20:05:33.179Z,7.6
2023-02-25T20:08:34.918Z,5.4
2023-02-25T20:11:36.874Z,3.9
2023-02-25T20:14:38.832Z,3.7
2023-02-25T20:17:40.825Z,5.9
2023-02-25T20:20:42.852Z,5.9
2023-02-25T20:23:44.735Z,5
2023-02-25T20:26:46.691Z,3.7
2023-02-25T20:29:48.704Z,4.5
2023-02-25T20:32:50.624Z,4.3
2023-02-25T20:35:52.611Z,3.6
2023-02-25T20:38:54.667Z,4.7
2023-02-25T20:41:56.550Z,3.2
2023-02-25T20:44:58.480Z,2.8
2023-02-25T20:48:00.411Z,5.4
2023-02-25T20:51:02.389Z,7.7
2023-02-25T20:54:04.367Z,3.4
2023-02-25T20:57:06.302Z,4
2023-02-25T21:00:08.260Z,6.4
2023-02-25T21:03:10.241Z,3.7
2023-02-25T21:06:12.217Z,4.7
2023-02-25T21:09:14.164Z,4.8
2023-02-25T21:12:16.135Z,4.9
2023-02-25T21:15:18.075Z,2.4
2023-02-25T21:18:20.106Z,2.8
2023-02-25T21:21:22.048Z,3.7
2023-02-25T21:24:24.082Z,3.2
2023-02-25T21:27:25.993Z,4.3
2023-02-25T21:30:28.112Z,4.2
2023-02-25T21:33:29.942Z,5.5
2023-02-25T21:36:31.903Z,9
2023-02-25T21:39:33.847Z,3.5
2023-02-25T21:42:35.817Z,2
2023-02-25T21:45:37.801Z,4.4
2023-02-25T21:48:39.737Z,3.5
2023-02-25T21:51:41.679Z,2.5
2023-02-25T21:54:43.662Z,4.1
2023-02-25T21:57:45.629Z,5.6
2023-02-25T22:00:47.581Z,4.8
2023-02-25T22:03:49.548Z,4.3
2023-02-25T22:06:51.524Z,3.2
2023-02-25T22:09:53.526Z,4.3
2023-02-25T22:12:55.483Z,5.1
2023-02-25T22:15:57.484Z,7.2
2023-02-25T22:18:59.421Z,4.8
2023-02-25T22:22:01.336Z,4.8
2023-02-25T22:25:03.471Z,4.5
2023-02-25T22:28:05.432Z,6.6
2023-02-25T22:31:07.334Z,3.5
2023-02-25T22:34:09.258Z,6.4
2023-02-25T22:37:11.229Z,5.4
2023-02-25T22:40:13.195Z,4.6
2023-02-25T22:43:15.113Z,5.9
2023-02-25T22:46:17.145Z,2.9
2023-02-25T22:49:19.056Z,4.3
2023-02-25T22:52:21.028Z,4.6
2023-02-25T22:55:23.041Z,4
2023-02-25T22:58:24.956Z,3.4
2023-02-25T23:01:26.991Z,6.2
2023-02-25T23:04:28.864Z,4.3
2023-02-25T23:07:30.829Z,5
2023-02-25T23:10:32.826Z,3.8
2023-02-25T23:13:34.800Z,6
2023-02-25T23:16:36.885Z,4.3
2023-02-25T23:19:38.724Z,3.2
2023-02-25T23:22:40.650Z,5.2
2023-02-25T23:25:42.622Z,4
2023-02-25T23:28:44.608Z,5.6
2023-02-25T23:31:46.616Z,4.4
2023-02-25T23:34:48.504Z,7
2023-02-25T23:37:50.517Z,4.9
2023-02-25T23:40:52.409Z,4.4
2023-02-25T23:43:54.409Z,4.9
2023-02-25T23:46:56.348Z,4.6
2023-02-25T23:49:58.327Z,5.7
2023-02-25T23:53:00.278Z,6.4
2023-02-25T23:56:02.249Z,4.5
2023-02-25T23:59:04.208Z,3.3
